Albany, New York
Traffic Map
Current Weather Conditions
Albany, New York
Overcast Drizzle
Overcast

Feels Like: 6°
Wind Chill: Ceiling: 600
Heat Index: Visibility: 3mi
Dew Point: Wind: 7mph
Humidity: 89% Direction: 20° (NNE)
Pressure: 29.85in Gusts: 0mph
Raw Report DataKALB 241251Z 02006KT 3SM -DZ BR BKN006 BKN012 OVC020 08/06 A2985 RMK AO2 RAE1155DZB1155 SLP110 VIS W-NW 2 BKN006 V SCT P0002 T00780061 $
Traffic Incident Summary
Active as of:
Severity:
Category:
InformationThere was an issue retrieving the traffic information for this location. Please try a different location or try again shortly.
Advertisements
Track Severe Weather on mobile